sensor_id;sensor_type;location;lat;lon;timestamp;P1;durP1;ratioP1;P2;durP2;ratioP2
19554;SDS011;9924;50.828;6.440;2022-09-24T00:01:10;11.30;;;4.50;;
19554;SDS011;9924;50.828;6.440;2022-09-24T00:03:47;7.20;;;4.53;;
19554;SDS011;9924;50.828;6.440;2022-09-24T00:06:17;7.55;;;4.90;;
19554;SDS011;9924;50.828;6.440;2022-09-24T00:08:44;7.53;;;4.53;;
19554;SDS011;9924;50.828;6.440;2022-09-24T00:11:11;8.68;;;4.20;;
19554;SDS011;9924;50.828;6.440;2022-09-24T00:13:37;7.75;;;4.40;;
19554;SDS011;9924;50.828;6.440;2022-09-24T00:16:05;7.65;;;4.40;;
19554;SDS011;9924;50.828;6.440;2022-09-24T00:18:33;9.35;;;4.65;;
19554;SDS011;9924;50.828;6.440;2022-09-24T00:20:59;6.03;;;4.63;;
19554;SDS011;9924;50.828;6.440;2022-09-24T00:23:25;7.22;;;4.68;;
19554;SDS011;9924;50.828;6.440;2022-09-24T00:25:51;6.88;;;4.30;;
19554;SDS011;9924;50.828;6.440;2022-09-24T00:28:36;7.22;;;4.45;;
19554;SDS011;9924;50.828;6.440;2022-09-24T00:31:03;7.03;;;4.18;;
19554;SDS011;9924;50.828;6.440;2022-09-24T00:33:31;6.00;;;4.25;;
19554;SDS011;9924;50.828;6.440;2022-09-24T00:35:59;4.80;;;4.03;;
19554;SDS011;9924;50.828;6.440;2022-09-24T00:38:27;5.93;;;4.30;;
19554;SDS011;9924;50.828;6.440;2022-09-24T00:40:54;5.90;;;4.00;;
19554;SDS011;9924;50.828;6.440;2022-09-24T00:43:29;8.18;;;4.72;;
19554;SDS011;9924;50.828;6.440;2022-09-24T00:48:53;7.03;;;4.60;;
19554;SDS011;9924;50.828;6.440;2022-09-24T00:51:23;6.78;;;4.88;;
19554;SDS011;9924;50.828;6.440;2022-09-24T00:53:52;7.57;;;4.75;;
19554;SDS011;9924;50.828;6.440;2022-09-24T00:56:22;9.48;;;4.80;;
19554;SDS011;9924;50.828;6.440;2022-09-24T00:58:49;6.40;;;4.32;;
19554;SDS011;9924;50.828;6.440;2022-09-24T01:01:17;8.32;;;4.88;;
19554;SDS011;9924;50.828;6.440;2022-09-24T01:03:44;10.80;;;5.80;;
19554;SDS011;9924;50.828;6.440;2022-09-24T01:06:13;8.82;;;4.63;;
19554;SDS011;9924;50.828;6.440;2022-09-24T01:08:38;6.00;;;4.65;;
19554;SDS011;9924;50.828;6.440;2022-09-24T01:13:57;9.23;;;4.75;;
19554;SDS011;9924;50.828;6.440;2022-09-24T01:16:50;7.32;;;4.57;;
19554;SDS011;9924;50.828;6.440;2022-09-24T01:31:52;8.50;;;4.70;;
19554;SDS011;9924;50.828;6.440;2022-09-24T01:33:58;6.55;;;4.63;;
19554;SDS011;9924;50.828;6.440;2022-09-24T01:36:30;7.97;;;4.40;;
19554;SDS011;9924;50.828;6.440;2022-09-24T01:39:00;7.90;;;4.55;;
19554;SDS011;9924;50.828;6.440;2022-09-24T01:41:29;9.65;;;5.43;;
19554;SDS011;9924;50.828;6.440;2022-09-24T01:43:58;7.78;;;4.55;;
19554;SDS011;9924;50.828;6.440;2022-09-24T01:46:25;7.50;;;4.40;;
19554;SDS011;9924;50.828;6.440;2022-09-24T01:48:52;9.57;;;4.72;;
19554;SDS011;9924;50.828;6.440;2022-09-24T01:51:19;7.55;;;4.13;;
19554;SDS011;9924;50.828;6.440;2022-09-24T01:56:22;7.57;;;4.82;;
19554;SDS011;9924;50.828;6.440;2022-09-24T01:58:58;8.00;;;4.43;;
19554;SDS011;9924;50.828;6.440;2022-09-24T02:01:29;7.75;;;4.90;;
19554;SDS011;9924;50.828;6.440;2022-09-24T02:04:05;7.43;;;4.40;;
19554;SDS011;9924;50.828;6.440;2022-09-24T02:06:44;7.15;;;5.13;;
19554;SDS011;9924;50.828;6.440;2022-09-24T02:09:33;7.78;;;4.75;;
19554;SDS011;9924;50.828;6.440;2022-09-24T02:12:17;6.85;;;4.70;;
19554;SDS011;9924;50.828;6.440;2022-09-24T02:14:55;8.95;;;5.07;;
19554;SDS011;9924;50.828;6.440;2022-09-24T02:17:24;7.13;;;4.93;;
19554;SDS011;9924;50.828;6.440;2022-09-24T02:19:55;6.32;;;4.22;;
19554;SDS011;9924;50.828;6.440;2022-09-24T02:22:22;6.68;;;4.80;;
19554;SDS011;9924;50.828;6.440;2022-09-24T02:24:51;7.35;;;4.40;;
19554;SDS011;9924;50.828;6.440;2022-09-24T02:27:19;7.10;;;4.97;;
19554;SDS011;9924;50.828;6.440;2022-09-24T02:29:46;9.63;;;5.30;;
19554;SDS011;9924;50.828;6.440;2022-09-24T02:32:12;7.47;;;4.53;;
19554;SDS011;9924;50.828;6.440;2022-09-24T02:34:43;6.30;;;4.95;;
19554;SDS011;9924;50.828;6.440;2022-09-24T02:37:13;6.93;;;4.97;;
19554;SDS011;9924;50.828;6.440;2022-09-24T02:39:40;7.47;;;4.60;;
19554;SDS011;9924;50.828;6.440;2022-09-24T02:42:06;7.68;;;4.70;;
19554;SDS011;9924;50.828;6.440;2022-09-24T02:44:34;8.27;;;4.57;;
19554;SDS011;9924;50.828;6.440;2022-09-24T02:47:00;5.68;;;4.65;;
19554;SDS011;9924;50.828;6.440;2022-09-24T02:49:27;9.90;;;5.30;;
19554;SDS011;9924;50.828;6.440;2022-09-24T02:51:53;7.38;;;4.82;;
19554;SDS011;9924;50.828;6.440;2022-09-24T02:54:20;8.18;;;4.35;;
19554;SDS011;9924;50.828;6.440;2022-09-24T02:56:46;7.25;;;4.82;;
19554;SDS011;9924;50.828;6.440;2022-09-24T02:59:12;8.57;;;4.40;;
19554;SDS011;9924;50.828;6.440;2022-09-24T03:01:38;6.78;;;4.50;;
19554;SDS011;9924;50.828;6.440;2022-09-24T03:04:05;9.88;;;5.00;;
19554;SDS011;9924;50.828;6.440;2022-09-24T03:06:31;7.35;;;4.90;;
19554;SDS011;9924;50.828;6.440;2022-09-24T03:08:57;10.88;;;5.00;;
19554;SDS011;9924;50.828;6.440;2022-09-24T03:11:23;7.22;;;4.55;;
19554;SDS011;9924;50.828;6.440;2022-09-24T03:13:49;8.48;;;4.72;;
19554;SDS011;9924;50.828;6.440;2022-09-24T03:16:16;6.90;;;4.60;;
19554;SDS011;9924;50.828;6.440;2022-09-24T03:18:42;6.68;;;4.47;;
19554;SDS011;9924;50.828;6.440;2022-09-24T03:21:11;7.75;;;4.88;;
19554;SDS011;9924;50.828;6.440;2022-09-24T03:23:39;8.25;;;5.00;;
19554;SDS011;9924;50.828;6.440;2022-09-24T03:26:05;7.13;;;4.65;;
19554;SDS011;9924;50.828;6.440;2022-09-24T03:28:31;6.03;;;4.45;;
19554;SDS011;9924;50.828;6.440;2022-09-24T03:30:57;8.18;;;5.13;;
19554;SDS011;9924;50.828;6.440;2022-09-24T03:35:58;7.95;;;5.13;;
19554;SDS011;9924;50.828;6.440;2022-09-24T03:38:27;6.75;;;5.03;;
19554;SDS011;9924;50.828;6.440;2022-09-24T03:40:54;8.25;;;5.50;;
19554;SDS011;9924;50.828;6.440;2022-09-24T03:43:23;8.80;;;5.20;;
19554;SDS011;9924;50.828;6.440;2022-09-24T03:45:49;7.47;;;5.22;;
19554;SDS011;9924;50.828;6.440;2022-09-24T03:48:16;10.10;;;5.82;;
19554;SDS011;9924;50.828;6.440;2022-09-24T03:50:42;7.45;;;4.65;;
19554;SDS011;9924;50.828;6.440;2022-09-24T03:53:08;7.93;;;4.43;;
19554;SDS011;9924;50.828;6.440;2022-09-24T03:55:34;9.32;;;4.38;;
19554;SDS011;9924;50.828;6.440;2022-09-24T03:58:00;6.60;;;4.30;;
19554;SDS011;9924;50.828;6.440;2022-09-24T04:00:26;5.93;;;4.13;;
19554;SDS011;9924;50.828;6.440;2022-09-24T04:02:52;7.03;;;4.60;;
19554;SDS011;9924;50.828;6.440;2022-09-24T04:05:18;10.25;;;4.43;;
19554;SDS011;9924;50.828;6.440;2022-09-24T04:07:44;8.32;;;5.35;;
19554;SDS011;9924;50.828;6.440;2022-09-24T04:10:10;8.70;;;5.07;;
19554;SDS011;9924;50.828;6.440;2022-09-24T04:12:36;11.07;;;5.43;;
19554;SDS011;9924;50.828;6.440;2022-09-24T04:15:02;7.80;;;5.32;;
19554;SDS011;9924;50.828;6.440;2022-09-24T04:17:28;7.22;;;4.50;;
19554;SDS011;9924;50.828;6.440;2022-09-24T04:19:58;7.72;;;4.50;;
19554;SDS011;9924;50.828;6.440;2022-09-24T04:22:25;9.60;;;4.88;;
19554;SDS011;9924;50.828;6.440;2022-09-24T04:24:52;8.02;;;4.65;;
19554;SDS011;9924;50.828;6.440;2022-09-24T04:27:17;7.30;;;4.53;;
19554;SDS011;9924;50.828;6.440;2022-09-24T04:29:44;6.70;;;4.55;;
19554;SDS011;9924;50.828;6.440;2022-09-24T04:32:10;10.65;;;4.78;;
19554;SDS011;9924;50.828;6.440;2022-09-24T04:34:36;8.73;;;4.63;;
19554;SDS011;9924;50.828;6.440;2022-09-24T04:37:01;7.22;;;4.50;;
19554;SDS011;9924;50.828;6.440;2022-09-24T04:39:27;7.88;;;4.70;;
19554;SDS011;9924;50.828;6.440;2022-09-24T04:41:53;6.78;;;4.68;;
19554;SDS011;9924;50.828;6.440;2022-09-24T04:44:19;5.90;;;4.38;;
19554;SDS011;9924;50.828;6.440;2022-09-24T04:46:45;8.95;;;4.32;;
19554;SDS011;9924;50.828;6.440;2022-09-24T04:49:10;9.18;;;4.82;;
19554;SDS011;9924;50.828;6.440;2022-09-24T04:51:36;6.65;;;4.05;;
19554;SDS011;9924;50.828;6.440;2022-09-24T04:54:02;7.63;;;4.43;;
19554;SDS011;9924;50.828;6.440;2022-09-24T04:56:28;9.00;;;4.80;;
19554;SDS011;9924;50.828;6.440;2022-09-24T04:58:55;7.78;;;4.60;;
19554;SDS011;9924;50.828;6.440;2022-09-24T05:01:21;8.07;;;4.75;;
19554;SDS011;9924;50.828;6.440;2022-09-24T05:03:47;10.85;;;4.93;;
19554;SDS011;9924;50.828;6.440;2022-09-24T05:06:13;6.72;;;4.63;;
19554;SDS011;9924;50.828;6.440;2022-09-24T05:08:40;7.55;;;4.18;;
19554;SDS011;9924;50.828;6.440;2022-09-24T05:11:06;7.97;;;4.40;;
19554;SDS011;9924;50.828;6.440;2022-09-24T05:13:32;8.18;;;4.72;;
19554;SDS011;9924;50.828;6.440;2022-09-24T05:15:59;7.20;;;4.35;;
19554;SDS011;9924;50.828;6.440;2022-09-24T05:18:25;9.07;;;4.72;;
19554;SDS011;9924;50.828;6.440;2022-09-24T05:20:51;6.93;;;4.32;;
19554;SDS011;9924;50.828;6.440;2022-09-24T05:23:17;8.52;;;4.55;;
19554;SDS011;9924;50.828;6.440;2022-09-24T05:25:43;6.00;;;4.65;;
19554;SDS011;9924;50.828;6.440;2022-09-24T05:28:27;7.03;;;4.70;;
19554;SDS011;9924;50.828;6.440;2022-09-24T05:30:56;7.45;;;4.85;;
19554;SDS011;9924;50.828;6.440;2022-09-24T05:33:22;8.38;;;4.50;;
19554;SDS011;9924;50.828;6.440;2022-09-24T05:35:54;7.28;;;4.93;;
19554;SDS011;9924;50.828;6.440;2022-09-24T05:38:21;8.70;;;4.97;;
19554;SDS011;9924;50.828;6.440;2022-09-24T05:40:47;11.32;;;4.93;;
19554;SDS011;9924;50.828;6.440;2022-09-24T05:43:13;6.38;;;4.95;;
19554;SDS011;9924;50.828;6.440;2022-09-24T05:45:39;7.95;;;5.03;;
19554;SDS011;9924;50.828;6.440;2022-09-24T05:48:08;5.82;;;4.65;;
19554;SDS011;9924;50.828;6.440;2022-09-24T05:50:33;7.93;;;5.35;;
19554;SDS011;9924;50.828;6.440;2022-09-24T05:53:00;8.05;;;5.40;;
19554;SDS011;9924;50.828;6.440;2022-09-24T08:28:55;12.82;;;6.63;;
19554;SDS011;9924;50.828;6.440;2022-09-24T08:31:21;14.00;;;6.82;;
19554;SDS011;9924;50.828;6.440;2022-09-24T08:33:47;13.82;;;7.18;;
19554;SDS011;9924;50.828;6.440;2022-09-24T08:36:15;12.20;;;6.97;;
19554;SDS011;9924;50.828;6.440;2022-09-24T08:38:42;12.00;;;6.10;;
19554;SDS011;9924;50.828;6.440;2022-09-24T08:46:30;11.73;;;6.78;;
19554;SDS011;9924;50.828;6.440;2022-09-24T08:50:02;13.32;;;7.90;;
19554;SDS011;9924;50.828;6.440;2022-09-24T08:54:47;14.32;;;8.30;;
19554;SDS011;9924;50.828;6.440;2022-09-24T08:57:15;17.85;;;8.15;;
19554;SDS011;9924;50.828;6.440;2022-09-24T08:59:43;16.08;;;9.07;;
19554;SDS011;9924;50.828;6.440;2022-09-24T09:07:59;16.00;;;9.77;;
19554;SDS011;9924;50.828;6.440;2022-09-24T09:10:40;15.70;;;9.95;;
19554;SDS011;9924;50.828;6.440;2022-09-24T09:13:20;16.52;;;9.88;;
19554;SDS011;9924;50.828;6.440;2022-09-24T09:15:58;19.65;;;10.32;;
19554;SDS011;9924;50.828;6.440;2022-09-24T09:18:31;16.17;;;9.23;;
19554;SDS011;9924;50.828;6.440;2022-09-24T09:21:26;15.48;;;9.60;;
19554;SDS011;9924;50.828;6.440;2022-09-24T09:23:52;17.50;;;9.32;;
19554;SDS011;9924;50.828;6.440;2022-09-24T09:26:23;20.45;;;10.93;;
19554;SDS011;9924;50.828;6.440;2022-09-24T09:28:49;17.27;;;10.15;;
19554;SDS011;9924;50.828;6.440;2022-09-24T09:42:46;21.05;;;11.15;;
19554;SDS011;9924;50.828;6.440;2022-09-24T09:45:27;16.77;;;9.98;;
19554;SDS011;9924;50.828;6.440;2022-09-24T09:47:57;16.88;;;10.10;;
19554;SDS011;9924;50.828;6.440;2022-09-24T09:50:26;16.55;;;9.88;;
19554;SDS011;9924;50.828;6.440;2022-09-24T09:52:53;11.20;;;6.85;;
19554;SDS011;9924;50.828;6.440;2022-09-24T09:55:26;9.40;;;6.32;;
19554;SDS011;9924;50.828;6.440;2022-09-24T09:58:07;15.57;;;8.57;;
19554;SDS011;9924;50.828;6.440;2022-09-24T10:00:35;15.10;;;10.10;;
19554;SDS011;9924;50.828;6.440;2022-09-24T10:03:01;17.42;;;9.27;;
19554;SDS011;9924;50.828;6.440;2022-09-24T10:05:28;20.88;;;10.07;;
19554;SDS011;9924;50.828;6.440;2022-09-24T10:07:55;14.40;;;8.93;;
19554;SDS011;9924;50.828;6.440;2022-09-24T10:10:24;14.02;;;9.13;;
19554;SDS011;9924;50.828;6.440;2022-09-24T10:13:07;12.30;;;8.23;;
19554;SDS011;9924;50.828;6.440;2022-09-24T10:15:47;9.98;;;7.68;;
19554;SDS011;9924;50.828;6.440;2022-09-24T10:18:31;16.00;;;9.48;;
19554;SDS011;9924;50.828;6.440;2022-09-24T10:20:59;13.05;;;9.40;;
19554;SDS011;9924;50.828;6.440;2022-09-24T10:23:38;17.45;;;9.45;;
19554;SDS011;9924;50.828;6.440;2022-09-24T10:26:08;13.80;;;8.38;;
19554;SDS011;9924;50.828;6.440;2022-09-24T10:28:45;16.23;;;9.40;;
19554;SDS011;9924;50.828;6.440;2022-09-24T10:31:34;14.80;;;9.23;;
19554;SDS011;9924;50.828;6.440;2022-09-24T10:34:03;15.45;;;8.75;;
19554;SDS011;9924;50.828;6.440;2022-09-24T10:36:49;15.98;;;9.50;;
19554;SDS011;9924;50.828;6.440;2022-09-24T10:39:16;16.13;;;9.25;;
19554;SDS011;9924;50.828;6.440;2022-09-24T10:41:52;15.55;;;9.90;;
19554;SDS011;9924;50.828;6.440;2022-09-24T10:44:21;16.52;;;10.07;;
19554;SDS011;9924;50.828;6.440;2022-09-24T10:55:52;15.10;;;10.25;;
19554;SDS011;9924;50.828;6.440;2022-09-24T11:01:21;13.35;;;8.90;;
19554;SDS011;9924;50.828;6.440;2022-09-24T11:09:31;19.27;;;10.00;;
19554;SDS011;9924;50.828;6.440;2022-09-24T11:17:50;16.75;;;10.93;;
19554;SDS011;9924;50.828;6.440;2022-09-24T11:20:24;18.13;;;10.73;;
19554;SDS011;9924;50.828;6.440;2022-09-24T11:22:59;21.48;;;10.80;;
19554;SDS011;9924;50.828;6.440;2022-09-24T11:54:16;13.73;;;8.07;;
19554;SDS011;9924;50.828;6.440;2022-09-24T11:56:56;14.27;;;9.55;;
19554;SDS011;9924;50.828;6.440;2022-09-24T12:02:19;13.63;;;8.75;;
19554;SDS011;9924;50.828;6.440;2022-09-24T12:05:06;13.55;;;8.35;;
19554;SDS011;9924;50.828;6.440;2022-09-24T12:07:44;13.15;;;7.53;;
19554;SDS011;9924;50.828;6.440;2022-09-24T12:13:45;16.75;;;7.70;;
19554;SDS011;9924;50.828;6.440;2022-09-24T12:16:22;11.95;;;7.18;;
19554;SDS011;9924;50.828;6.440;2022-09-24T12:19:27;12.20;;;7.47;;
19554;SDS011;9924;50.828;6.440;2022-09-24T12:21:57;12.52;;;8.23;;
19554;SDS011;9924;50.828;6.440;2022-09-24T12:24:30;13.10;;;7.53;;
19554;SDS011;9924;50.828;6.440;2022-09-24T12:27:35;12.38;;;8.25;;
19554;SDS011;9924;50.828;6.440;2022-09-24T12:30:05;11.48;;;7.38;;
19554;SDS011;9924;50.828;6.440;2022-09-24T12:33:07;14.00;;;7.78;;
19554;SDS011;9924;50.828;6.440;2022-09-24T12:38:36;9.88;;;6.32;;
19554;SDS011;9924;50.828;6.440;2022-09-24T12:49:30;11.45;;;7.22;;
19554;SDS011;9924;50.828;6.440;2022-09-24T12:52:03;11.65;;;7.22;;
19554;SDS011;9924;50.828;6.440;2022-09-24T12:54:41;12.73;;;7.63;;
19554;SDS011;9924;50.828;6.440;2022-09-24T12:57:11;11.55;;;7.53;;
19554;SDS011;9924;50.828;6.440;2022-09-24T13:00:00;18.05;;;7.82;;
19554;SDS011;9924;50.828;6.440;2022-09-24T13:10:27;16.02;;;8.02;;
19554;SDS011;9924;50.828;6.440;2022-09-24T13:12:54;12.65;;;7.85;;
19554;SDS011;9924;50.828;6.440;2022-09-24T13:17:59;14.10;;;8.73;;
19554;SDS011;9924;50.828;6.440;2022-09-24T13:20:35;14.88;;;9.27;;
19554;SDS011;9924;50.828;6.440;2022-09-24T13:25:56;12.40;;;7.95;;
19554;SDS011;9924;50.828;6.440;2022-09-24T13:28:26;14.10;;;7.78;;
19554;SDS011;9924;50.828;6.440;2022-09-24T13:30:56;16.33;;;7.18;;
19554;SDS011;9924;50.828;6.440;2022-09-24T13:33:43;16.30;;;7.97;;
19554;SDS011;9924;50.828;6.440;2022-09-24T13:36:13;14.15;;;7.88;;
19554;SDS011;9924;50.828;6.440;2022-09-24T13:41:13;13.20;;;7.95;;
19554;SDS011;9924;50.828;6.440;2022-09-24T13:43:49;12.50;;;7.78;;
19554;SDS011;9924;50.828;6.440;2022-09-24T13:46:23;14.02;;;8.73;;
19554;SDS011;9924;50.828;6.440;2022-09-24T13:48:52;14.80;;;8.57;;
19554;SDS011;9924;50.828;6.440;2022-09-24T13:51:35;15.73;;;9.38;;
19554;SDS011;9924;50.828;6.440;2022-09-24T13:54:10;16.38;;;9.00;;
19554;SDS011;9924;50.828;6.440;2022-09-24T13:56:37;13.88;;;8.88;;
19554;SDS011;9924;50.828;6.440;2022-09-24T13:59:03;13.63;;;8.52;;
19554;SDS011;9924;50.828;6.440;2022-09-24T14:01:35;16.08;;;9.02;;
19554;SDS011;9924;50.828;6.440;2022-09-24T14:04:13;15.20;;;9.52;;
19554;SDS011;9924;50.828;6.440;2022-09-24T14:06:46;19.98;;;9.70;;
19554;SDS011;9924;50.828;6.440;2022-09-24T14:09:33;31.90;;;10.32;;
19554;SDS011;9924;50.828;6.440;2022-09-24T14:12:01;26.67;;;9.63;;
19554;SDS011;9924;50.828;6.440;2022-09-24T14:14:44;21.83;;;9.98;;
19554;SDS011;9924;50.828;6.440;2022-09-24T14:17:14;16.48;;;10.00;;
19554;SDS011;9924;50.828;6.440;2022-09-24T14:19:40;19.75;;;10.65;;
19554;SDS011;9924;50.828;6.440;2022-09-24T14:22:23;16.35;;;10.88;;
19554;SDS011;9924;50.828;6.440;2022-09-24T14:27:30;18.75;;;10.48;;
19554;SDS011;9924;50.828;6.440;2022-09-24T14:30:07;18.27;;;10.35;;
19554;SDS011;9924;50.828;6.440;2022-09-24T14:32:42;14.32;;;9.52;;
19554;SDS011;9924;50.828;6.440;2022-09-24T14:35:15;46.10;;;10.32;;
19554;SDS011;9924;50.828;6.440;2022-09-24T14:38:10;18.50;;;9.20;;
19554;SDS011;9924;50.828;6.440;2022-09-24T14:40:38;16.67;;;8.77;;
19554;SDS011;9924;50.828;6.440;2022-09-24T14:43:09;15.82;;;8.50;;
19554;SDS011;9924;50.828;6.440;2022-09-24T14:45:44;12.55;;;8.25;;
19554;SDS011;9924;50.828;6.440;2022-09-24T14:48:19;14.00;;;8.75;;
19554;SDS011;9924;50.828;6.440;2022-09-24T14:50:55;14.80;;;8.90;;
19554;SDS011;9924;50.828;6.440;2022-09-24T14:55:49;15.55;;;8.15;;
19554;SDS011;9924;50.828;6.440;2022-09-24T14:58:25;13.73;;;7.80;;
19554;SDS011;9924;50.828;6.440;2022-09-24T15:06:27;13.30;;;7.50;;
19554;SDS011;9924;50.828;6.440;2022-09-24T15:11:33;11.98;;;7.40;;
19554;SDS011;9924;50.828;6.440;2022-09-24T15:14:22;13.82;;;8.10;;
19554;SDS011;9924;50.828;6.440;2022-09-24T15:16:51;12.40;;;7.75;;
19554;SDS011;9924;50.828;6.440;2022-09-24T15:19:25;13.27;;;8.10;;
19554;SDS011;9924;50.828;6.440;2022-09-24T15:21:55;16.42;;;8.90;;
19554;SDS011;9924;50.828;6.440;2022-09-24T15:24:22;15.48;;;9.18;;
19554;SDS011;9924;50.828;6.440;2022-09-24T15:27:05;14.80;;;9.57;;
19554;SDS011;9924;50.828;6.440;2022-09-24T15:29:40;15.05;;;9.77;;
19554;SDS011;9924;50.828;6.440;2022-09-24T15:32:15;14.25;;;8.77;;
19554;SDS011;9924;50.828;6.440;2022-09-24T15:34:42;20.27;;;9.68;;
19554;SDS011;9924;50.828;6.440;2022-09-24T15:37:09;16.20;;;10.43;;
19554;SDS011;9924;50.828;6.440;2022-09-24T15:39:37;17.08;;;10.05;;
19554;SDS011;9924;50.828;6.440;2022-09-24T15:42:04;18.83;;;10.80;;
19554;SDS011;9924;50.828;6.440;2022-09-24T15:44:29;15.77;;;9.70;;
19554;SDS011;9924;50.828;6.440;2022-09-24T15:46:55;17.70;;;10.82;;
19554;SDS011;9924;50.828;6.440;2022-09-24T15:49:21;16.77;;;9.70;;
19554;SDS011;9924;50.828;6.440;2022-09-24T15:51:48;15.73;;;9.82;;
19554;SDS011;9924;50.828;6.440;2022-09-24T15:54:23;17.80;;;11.05;;
19554;SDS011;9924;50.828;6.440;2022-09-24T15:56:49;17.08;;;10.57;;
19554;SDS011;9924;50.828;6.440;2022-09-24T15:59:19;21.33;;;11.73;;
19554;SDS011;9924;50.828;6.440;2022-09-24T16:01:46;18.02;;;10.60;;
19554;SDS011;9924;50.828;6.440;2022-09-24T16:04:14;16.05;;;10.80;;
19554;SDS011;9924;50.828;6.440;2022-09-24T16:06:40;19.83;;;10.77;;
19554;SDS011;9924;50.828;6.440;2022-09-24T16:09:06;22.00;;;11.25;;
19554;SDS011;9924;50.828;6.440;2022-09-24T16:11:32;17.15;;;10.40;;
19554;SDS011;9924;50.828;6.440;2022-09-24T16:13:57;19.65;;;11.70;;
19554;SDS011;9924;50.828;6.440;2022-09-24T16:16:23;16.35;;;10.43;;
19554;SDS011;9924;50.828;6.440;2022-09-24T16:18:49;16.77;;;9.60;;
19554;SDS011;9924;50.828;6.440;2022-09-24T16:21:16;14.77;;;9.35;;
19554;SDS011;9924;50.828;6.440;2022-09-24T16:23:42;18.80;;;9.60;;
19554;SDS011;9924;50.828;6.440;2022-09-24T16:26:08;14.95;;;9.27;;
19554;SDS011;9924;50.828;6.440;2022-09-24T16:28:34;15.75;;;8.95;;
19554;SDS011;9924;50.828;6.440;2022-09-24T16:31:06;15.10;;;9.90;;
19554;SDS011;9924;50.828;6.440;2022-09-24T16:33:36;17.30;;;9.88;;
19554;SDS011;9924;50.828;6.440;2022-09-24T16:36:05;19.25;;;9.90;;
19554;SDS011;9924;50.828;6.440;2022-09-24T16:38:33;18.48;;;9.23;;
19554;SDS011;9924;50.828;6.440;2022-09-24T16:41:00;21.17;;;9.43;;
19554;SDS011;9924;50.828;6.440;2022-09-24T16:43:26;20.58;;;9.80;;
19554;SDS011;9924;50.828;6.440;2022-09-24T16:45:52;18.80;;;10.60;;
19554;SDS011;9924;50.828;6.440;2022-09-24T16:48:23;20.20;;;9.63;;
19554;SDS011;9924;50.828;6.440;2022-09-24T16:50:49;17.42;;;9.48;;
19554;SDS011;9924;50.828;6.440;2022-09-24T16:53:15;16.48;;;8.95;;
19554;SDS011;9924;50.828;6.440;2022-09-24T16:55:40;17.63;;;10.07;;
19554;SDS011;9924;50.828;6.440;2022-09-24T16:58:09;22.13;;;9.98;;
19554;SDS011;9924;50.828;6.440;2022-09-24T17:00:35;18.30;;;10.43;;
19554;SDS011;9924;50.828;6.440;2022-09-24T17:03:07;20.92;;;11.88;;
19554;SDS011;9924;50.828;6.440;2022-09-24T17:05:37;27.48;;;11.65;;
19554;SDS011;9924;50.828;6.440;2022-09-24T17:08:05;24.50;;;12.32;;
19554;SDS011;9924;50.828;6.440;2022-09-24T17:10:31;22.30;;;13.18;;
19554;SDS011;9924;50.828;6.440;2022-09-24T17:12:57;23.80;;;14.45;;
19554;SDS011;9924;50.828;6.440;2022-09-24T17:15:25;26.70;;;14.57;;
19554;SDS011;9924;50.828;6.440;2022-09-24T17:17:51;25.23;;;15.80;;
19554;SDS011;9924;50.828;6.440;2022-09-24T17:20:17;31.95;;;15.52;;
19554;SDS011;9924;50.828;6.440;2022-09-24T17:22:43;27.08;;;15.27;;
19554;SDS011;9924;50.828;6.440;2022-09-24T17:25:11;25.58;;;15.98;;
19554;SDS011;9924;50.828;6.440;2022-09-24T17:27:37;28.88;;;15.55;;
19554;SDS011;9924;50.828;6.440;2022-09-24T17:30:04;27.00;;;17.33;;
19554;SDS011;9924;50.828;6.440;2022-09-24T17:32:31;28.15;;;16.30;;
19554;SDS011;9924;50.828;6.440;2022-09-24T17:34:58;28.02;;;15.27;;
19554;SDS011;9924;50.828;6.440;2022-09-24T17:37:24;27.67;;;15.85;;
19554;SDS011;9924;50.828;6.440;2022-09-24T17:39:51;24.02;;;14.88;;
19554;SDS011;9924;50.828;6.440;2022-09-24T17:42:17;25.40;;;15.68;;
19554;SDS011;9924;50.828;6.440;2022-09-24T17:44:43;26.30;;;16.10;;
19554;SDS011;9924;50.828;6.440;2022-09-24T17:47:10;22.65;;;13.95;;
19554;SDS011;9924;50.828;6.440;2022-09-24T17:49:35;25.85;;;14.52;;
19554;SDS011;9924;50.828;6.440;2022-09-24T17:52:02;22.80;;;14.13;;
19554;SDS011;9924;50.828;6.440;2022-09-24T17:54:28;22.95;;;14.07;;
19554;SDS011;9924;50.828;6.440;2022-09-24T17:56:54;22.83;;;15.07;;
19554;SDS011;9924;50.828;6.440;2022-09-24T17:59:20;21.05;;;13.43;;
19554;SDS011;9924;50.828;6.440;2022-09-24T18:01:45;23.00;;;13.07;;
19554;SDS011;9924;50.828;6.440;2022-09-24T18:04:13;23.33;;;16.00;;
19554;SDS011;9924;50.828;6.440;2022-09-24T18:06:40;24.90;;;15.43;;
19554;SDS011;9924;50.828;6.440;2022-09-24T18:09:08;21.75;;;14.43;;
19554;SDS011;9924;50.828;6.440;2022-09-24T18:11:41;21.40;;;13.38;;
19554;SDS011;9924;50.828;6.440;2022-09-24T18:14:12;23.60;;;14.52;;
19554;SDS011;9924;50.828;6.440;2022-09-24T18:16:41;24.73;;;14.25;;
19554;SDS011;9924;50.828;6.440;2022-09-24T18:19:08;20.63;;;13.55;;
19554;SDS011;9924;50.828;6.440;2022-09-24T18:21:35;26.92;;;15.20;;
19554;SDS011;9924;50.828;6.440;2022-09-24T18:24:01;20.65;;;14.13;;
19554;SDS011;9924;50.828;6.440;2022-09-24T18:26:31;21.05;;;14.93;;
19554;SDS011;9924;50.828;6.440;2022-09-24T18:31:40;27.08;;;16.52;;
19554;SDS011;9924;50.828;6.440;2022-09-24T18:34:08;27.98;;;17.40;;
19554;SDS011;9924;50.828;6.440;2022-09-24T18:36:37;23.98;;;16.50;;
19554;SDS011;9924;50.828;6.440;2022-09-24T18:39:05;26.38;;;17.10;;
19554;SDS011;9924;50.828;6.440;2022-09-24T18:41:33;29.83;;;17.63;;
19554;SDS011;9924;50.828;6.440;2022-09-24T18:44:00;25.73;;;17.58;;
19554;SDS011;9924;50.828;6.440;2022-09-24T18:46:27;24.70;;;16.73;;
19554;SDS011;9924;50.828;6.440;2022-09-24T18:48:55;27.63;;;18.25;;
19554;SDS011;9924;50.828;6.440;2022-09-24T18:51:22;27.15;;;18.85;;
19554;SDS011;9924;50.828;6.440;2022-09-24T18:53:55;28.63;;;19.17;;
19554;SDS011;9924;50.828;6.440;2022-09-24T18:56:26;32.25;;;19.48;;
19554;SDS011;9924;50.828;6.440;2022-09-24T18:59:03;31.80;;;20.35;;
19554;SDS011;9924;50.828;6.440;2022-09-24T19:01:30;29.77;;;18.95;;
19554;SDS011;9924;50.828;6.440;2022-09-24T19:03:59;26.60;;;17.38;;
19554;SDS011;9924;50.828;6.440;2022-09-24T19:06:27;28.38;;;19.52;;
19554;SDS011;9924;50.828;6.440;2022-09-24T19:08:53;28.80;;;19.13;;
19554;SDS011;9924;50.828;6.440;2022-09-24T19:11:19;28.65;;;19.65;;
19554;SDS011;9924;50.828;6.440;2022-09-24T19:13:52;30.27;;;19.10;;
19554;SDS011;9924;50.828;6.440;2022-09-24T19:16:18;30.80;;;21.60;;
19554;SDS011;9924;50.828;6.440;2022-09-24T19:18:47;28.63;;;19.63;;
19554;SDS011;9924;50.828;6.440;2022-09-24T19:21:14;28.52;;;19.77;;
19554;SDS011;9924;50.828;6.440;2022-09-24T19:23:44;26.23;;;19.10;;
19554;SDS011;9924;50.828;6.440;2022-09-24T19:26:12;24.73;;;17.92;;
19554;SDS011;9924;50.828;6.440;2022-09-24T19:28:40;28.77;;;19.17;;
19554;SDS011;9924;50.828;6.440;2022-09-24T19:31:13;28.60;;;19.13;;
19554;SDS011;9924;50.828;6.440;2022-09-24T19:33:41;30.13;;;20.13;;
19554;SDS011;9924;50.828;6.440;2022-09-24T19:36:08;37.30;;;20.42;;
19554;SDS011;9924;50.828;6.440;2022-09-24T19:38:35;34.45;;;21.25;;
19554;SDS011;9924;50.828;6.440;2022-09-24T19:41:05;29.02;;;20.55;;
19554;SDS011;9924;50.828;6.440;2022-09-24T19:43:46;34.42;;;21.75;;
19554;SDS011;9924;50.828;6.440;2022-09-24T19:46:15;31.13;;;21.77;;
19554;SDS011;9924;50.828;6.440;2022-09-24T19:48:45;31.88;;;21.63;;
19554;SDS011;9924;50.828;6.440;2022-09-24T19:51:16;35.38;;;22.15;;
19554;SDS011;9924;50.828;6.440;2022-09-24T19:53:47;35.15;;;22.50;;
19554;SDS011;9924;50.828;6.440;2022-09-24T19:56:14;32.05;;;22.08;;
19554;SDS011;9924;50.828;6.440;2022-09-24T19:58:40;33.28;;;22.48;;
19554;SDS011;9924;50.828;6.440;2022-09-24T20:01:09;39.28;;;25.02;;
19554;SDS011;9924;50.828;6.440;2022-09-24T20:03:36;39.72;;;24.02;;
19554;SDS011;9924;50.828;6.440;2022-09-24T20:06:05;35.78;;;24.35;;
19554;SDS011;9924;50.828;6.440;2022-09-24T20:08:35;39.17;;;24.25;;